createdAt,value
2023-01-11T00:01:52.790Z,1.08
2023-01-11T00:04:19.042Z,1.20
2023-01-11T00:06:45.322Z,1.10
2023-01-11T00:09:11.555Z,1.10
2023-01-11T00:11:37.684Z,1.50
2023-01-11T00:14:03.942Z,1.65
2023-01-11T00:16:30.395Z,1.08
2023-01-11T00:18:56.570Z,1.05
2023-01-11T00:21:22.748Z,1.30
2023-01-11T00:23:48.939Z,1.02
2023-01-11T00:26:15.150Z,1.20
2023-01-11T00:28:41.320Z,1.40
2023-01-11T00:31:07.583Z,1.65
2023-01-11T00:33:33.778Z,1.25
2023-01-11T00:35:59.948Z,1.20
2023-01-11T00:38:26.152Z,1.60
2023-01-11T00:40:52.322Z,1.35
2023-01-11T00:43:18.521Z,1.20
2023-01-11T00:45:44.665Z,1.20
2023-01-11T00:48:10.907Z,2.03
2023-01-11T00:50:37.069Z,1.10
2023-01-11T00:53:03.460Z,1.50
2023-01-11T00:55:29.636Z,1.42
2023-01-11T00:57:55.919Z,1.48
2023-01-11T01:00:22.214Z,1.67
2023-01-11T01:02:48.479Z,1.77
2023-01-11T01:05:14.767Z,1.50
2023-01-11T01:07:41.010Z,1.30
2023-01-11T01:10:07.206Z,1.30
2023-01-11T01:12:33.381Z,2.22
2023-01-11T01:14:59.595Z,1.77
2023-01-11T01:17:25.781Z,1.40
2023-01-11T01:19:51.971Z,1.67
2023-01-11T01:22:18.174Z,1.60
2023-01-11T01:24:44.449Z,1.70
2023-01-11T01:27:10.630Z,1.55
2023-01-11T01:29:36.864Z,1.40
2023-01-11T01:32:03.034Z,1.60
2023-01-11T01:34:29.202Z,1.38
2023-01-11T01:36:55.400Z,1.50
2023-01-11T01:39:21.608Z,1.70
2023-01-11T01:41:47.756Z,1.40
2023-01-11T01:44:13.922Z,1.67
2023-01-11T01:46:40.167Z,1.60
2023-01-11T01:49:06.405Z,1.30
2023-01-11T01:51:32.551Z,1.25
2023-01-11T01:53:58.709Z,1.60
2023-01-11T01:56:33.650Z,1.45
2023-01-11T01:59:01.600Z,1.70
2023-01-11T02:01:43.958Z,1.70
2023-01-11T02:04:10.239Z,0.93
2023-01-11T02:06:36.484Z,1.65
2023-01-11T02:09:02.688Z,1.00
2023-01-11T02:11:28.884Z,0.93
2023-01-11T02:13:55.013Z,1.40
2023-01-11T02:16:21.271Z,1.38
2023-01-11T02:18:47.562Z,1.38
2023-01-11T02:21:13.744Z,1.25
2023-01-11T02:23:40.060Z,1.10
2023-01-11T02:26:06.228Z,1.50
2023-01-11T02:28:32.418Z,1.60
2023-01-11T02:30:58.652Z,1.17
2023-01-11T02:33:24.875Z,1.77
2023-01-11T02:35:51.039Z,1.83
2023-01-11T02:38:17.211Z,1.50
2023-01-11T02:40:43.446Z,1.55
2023-01-11T02:43:09.683Z,1.27
2023-01-11T02:45:35.907Z,1.50
2023-01-11T02:48:02.106Z,1.83
2023-01-11T02:50:28.389Z,1.50
2023-01-11T02:52:54.570Z,1.38
2023-01-11T02:55:20.800Z,1.48
2023-01-11T02:57:46.994Z,1.35
2023-01-11T03:00:13.286Z,1.00
2023-01-11T03:02:39.518Z,1.30
2023-01-11T03:05:05.757Z,1.30
2023-01-11T03:07:31.921Z,1.52
2023-01-11T03:09:58.141Z,1.58
2023-01-11T03:12:24.368Z,1.20
2023-01-11T03:14:50.553Z,1.55
2023-01-11T03:17:16.739Z,1.77
2023-01-11T03:19:43.914Z,1.45
2023-01-11T03:22:10.176Z,1.42
2023-01-11T03:24:36.386Z,1.15
2023-01-11T03:27:02.559Z,1.23
2023-01-11T03:29:28.767Z,1.05
2023-01-11T03:31:54.956Z,1.27
2023-01-11T03:34:21.172Z,1.05
2023-01-11T03:36:48.566Z,1.35
2023-01-11T03:39:14.744Z,0.95
2023-01-11T03:41:40.969Z,0.93
2023-01-11T03:44:07.323Z,1.30
2023-01-11T03:46:33.505Z,0.98
2023-01-11T03:48:59.711Z,0.70
2023-01-11T03:51:25.993Z,1.33
2023-01-11T03:53:52.216Z,1.05
2023-01-11T03:56:18.439Z,1.23
2023-01-11T03:58:44.678Z,1.52
2023-01-11T04:01:10.914Z,1.50
2023-01-11T04:03:37.207Z,1.17
2023-01-11T04:06:03.458Z,1.08
2023-01-11T04:08:29.612Z,1.25
2023-01-11T04:10:55.769Z,1.35
2023-01-11T04:13:21.957Z,1.02
2023-01-11T04:15:48.149Z,1.10
2023-01-11T04:18:14.438Z,0.95
2023-01-11T04:20:40.614Z,1.10
2023-01-11T04:23:06.753Z,1.38
2023-01-11T04:25:32.939Z,1.75
2023-01-11T04:27:59.095Z,1.15
2023-01-11T04:30:25.282Z,1.38
2023-01-11T04:32:51.494Z,1.13
2023-01-11T04:35:17.707Z,1.30
2023-01-11T04:37:43.899Z,1.40
2023-01-11T04:40:10.121Z,1.33
2023-01-11T04:42:36.309Z,1.23
2023-01-11T04:45:02.462Z,0.98
2023-01-11T04:47:28.694Z,1.40
2023-01-11T04:49:54.934Z,1.30
2023-01-11T04:52:21.123Z,1.20
2023-01-11T04:54:47.334Z,1.50
2023-01-11T04:57:13.528Z,1.48
2023-01-11T04:59:39.865Z,1.15
2023-01-11T05:02:06.099Z,1.05
2023-01-11T05:04:32.452Z,1.25
2023-01-11T05:06:58.728Z,1.65
2023-01-11T05:09:25.116Z,1.13
2023-01-11T05:11:51.286Z,1.08
2023-01-11T05:14:17.486Z,0.95
2023-01-11T05:16:43.730Z,1.45
2023-01-11T05:19:09.901Z,1.17
2023-01-11T05:21:36.095Z,1.15
2023-01-11T05:24:02.302Z,1.17
2023-01-11T05:26:28.495Z,1.38
2023-01-11T05:28:54.668Z,1.25
2023-01-11T05:31:20.837Z,1.52
2023-01-11T05:33:47.083Z,1.10
2023-01-11T05:36:13.505Z,1.48
2023-01-11T05:38:39.724Z,1.10
2023-01-11T05:41:05.942Z,1.20
2023-01-11T05:43:32.137Z,1.30
2023-01-11T05:45:58.362Z,1.00
2023-01-11T05:48:24.568Z,1.10
2023-01-11T05:50:50.718Z,1.48
2023-01-11T05:53:16.875Z,1.33
2023-01-11T05:55:43.037Z,1.45
2023-01-11T05:58:09.289Z,1.50
2023-01-11T06:00:35.489Z,2.20
2023-01-11T06:03:01.638Z,2.22
2023-01-11T06:05:27.926Z,2.00
2023-01-11T06:07:54.137Z,2.50
2023-01-11T06:10:20.324Z,1.73
2023-01-11T06:12:46.476Z,1.98
2023-01-11T06:15:12.645Z,1.65
2023-01-11T06:17:38.783Z,2.20
2023-01-11T06:20:04.951Z,2.20
2023-01-11T06:22:31.116Z,1.98
2023-01-11T06:24:57.291Z,2.85
2023-01-11T06:27:23.463Z,2.00
2023-01-11T06:29:52.477Z,1.73
2023-01-11T06:32:18.696Z,1.42
2023-01-11T06:34:44.892Z,1.50
2023-01-11T06:37:11.064Z,1.58
2023-01-11T06:39:37.201Z,1.55
2023-01-11T06:42:03.398Z,1.52
2023-01-11T06:44:29.528Z,1.50
2023-01-11T06:46:55.668Z,1.15
2023-01-11T06:49:21.880Z,1.40
2023-01-11T06:51:48.090Z,1.70
2023-01-11T06:54:14.260Z,1.60
2023-01-11T06:56:40.487Z,1.60
2023-01-11T06:59:06.688Z,1.75
2023-01-11T07:01:33.032Z,1.90
2023-01-11T07:03:59.283Z,1.60
2023-01-11T07:06:25.544Z,1.20
2023-01-11T07:08:51.673Z,1.15
2023-01-11T07:11:17.835Z,1.20
2023-01-11T07:13:44.024Z,0.77
2023-01-11T07:16:10.352Z,0.90
2023-01-11T07:18:36.639Z,1.05
2023-01-11T07:21:02.787Z,0.68
2023-01-11T07:23:28.918Z,0.82
2023-01-11T07:25:55.152Z,0.73
2023-01-11T07:28:21.353Z,0.52
2023-01-11T07:30:58.106Z,0.68
2023-01-11T07:33:24.653Z,0.65
2023-01-11T07:35:50.881Z,0.63
2023-01-11T07:38:17.066Z,0.80
2023-01-11T07:40:43.237Z,0.63
2023-01-11T07:43:09.445Z,0.40
2023-01-11T07:45:45.388Z,0.70
2023-01-11T07:48:12.271Z,0.80
2023-01-11T07:50:44.849Z,0.70
2023-01-11T07:53:11.412Z,1.08
2023-01-11T07:55:39.169Z,0.90
2023-01-11T07:58:05.365Z,0.82
2023-01-11T08:00:31.575Z,0.88
2023-01-11T08:02:57.911Z,0.95
2023-01-11T08:05:24.541Z,0.98
2023-01-11T08:07:50.733Z,0.75
2023-01-11T08:10:16.905Z,1.10
2023-01-11T08:12:43.084Z,0.70
2023-01-11T08:15:09.314Z,1.15
2023-01-11T08:17:35.454Z,0.88
2023-01-11T08:20:01.645Z,1.20
2023-01-11T08:22:27.824Z,1.30
2023-01-11T08:24:54.052Z,0.88
2023-01-11T08:27:20.224Z,1.30
2023-01-11T08:29:46.392Z,0.90
2023-01-11T08:32:12.544Z,0.95
2023-01-11T08:34:38.759Z,1.88
2023-01-11T08:37:04.944Z,0.80
2023-01-11T08:39:31.185Z,1.13
2023-01-11T08:42:00.150Z,1.20
2023-01-11T08:44:33.805Z,0.68
2023-01-11T08:47:00.820Z,0.45
2023-01-11T08:49:26.988Z,0.65
2023-01-11T08:51:53.171Z,0.80
2023-01-11T08:54:19.371Z,0.80
2023-01-11T08:56:45.564Z,0.73
2023-01-11T08:59:11.775Z,0.60
2023-01-11T09:01:37.979Z,0.50
2023-01-11T09:04:12.512Z,0.90
2023-01-11T09:06:49.549Z,0.75
2023-01-11T09:09:15.746Z,1.13
2023-01-11T09:11:41.949Z,0.70
2023-01-11T09:14:08.115Z,1.23
2023-01-11T09:16:34.352Z,0.98
2023-01-11T09:19:00.560Z,0.70
2023-01-11T09:21:26.674Z,1.17
2023-01-11T09:23:52.973Z,1.45
2023-01-11T09:26:19.132Z,0.93
2023-01-11T09:28:45.334Z,0.90
2023-01-11T09:31:11.614Z,1.35
2023-01-11T09:33:37.833Z,0.88
2023-01-11T09:36:04.026Z,1.00
2023-01-11T09:38:30.237Z,1.15
2023-01-11T09:40:56.464Z,1.10
2023-01-11T09:43:22.664Z,1.08
2023-01-11T09:45:48.832Z,1.10
2023-01-11T09:48:15.007Z,1.23
2023-01-11T09:50:41.224Z,0.93
2023-01-11T09:53:07.425Z,1.08
2023-01-11T09:55:33.624Z,1.27
2023-01-11T09:57:59.808Z,1.48
2023-01-11T10:00:26.115Z,1.33
2023-01-11T10:02:52.369Z,1.02
2023-01-11T10:05:18.616Z,1.30
2023-01-11T10:07:44.823Z,1.20
2023-01-11T10:18:31.762Z,1.00
2023-01-11T10:18:52.884Z,0.95
2023-01-11T10:21:15.588Z,0.75
2023-01-11T10:23:41.768Z,1.20
2023-01-11T10:26:07.910Z,0.70
2023-01-11T10:28:34.118Z,0.70
2023-01-11T10:31:00.306Z,1.00
2023-01-11T10:33:26.540Z,1.30
2023-01-11T10:35:52.736Z,1.10
2023-01-11T10:38:18.887Z,1.25
2023-01-11T10:40:45.049Z,1.00
2023-01-11T10:43:11.261Z,1.65
2023-01-11T10:45:37.579Z,1.45
2023-01-11T10:48:03.836Z,1.27
2023-01-11T10:50:30.039Z,1.52
2023-01-11T10:52:56.260Z,1.55
2023-01-11T10:55:22.470Z,1.35
2023-01-11T10:58:01.843Z,1.20
2023-01-11T11:00:30.116Z,1.23
2023-01-11T11:02:56.313Z,1.40
2023-01-11T11:05:22.502Z,1.40
2023-01-11T11:07:48.682Z,1.30
2023-01-11T11:10:14.878Z,1.90
2023-01-11T11:12:41.045Z,1.83
2023-01-11T11:15:07.216Z,1.67
2023-01-11T11:17:33.379Z,2.35
2023-01-11T11:19:59.575Z,2.75
2023-01-11T11:22:25.787Z,2.50
2023-01-11T11:24:52.010Z,2.20
2023-01-11T11:27:18.267Z,1.92
2023-01-11T11:29:44.515Z,2.22
2023-01-11T11:32:10.795Z,2.22
2023-01-11T11:34:36.992Z,2.20
2023-01-11T11:37:03.206Z,1.92
2023-01-11T11:39:29.430Z,2.05
2023-01-11T11:41:55.653Z,2.83
2023-01-11T11:44:21.906Z,2.90
2023-01-11T11:46:48.118Z,2.80
2023-01-11T11:49:14.332Z,3.03
2023-01-11T11:51:40.579Z,2.65
2023-01-11T11:54:06.782Z,2.88
2023-01-11T11:56:33.250Z,2.90
2023-01-11T11:58:59.541Z,5.80
2023-01-11T12:01:25.755Z,2.65
2023-01-11T12:03:52.099Z,2.53
2023-01-11T12:06:18.359Z,2.60
2023-01-11T12:08:44.762Z,2.30
2023-01-11T12:11:10.951Z,2.17
2023-01-11T12:13:37.166Z,2.22
2023-01-11T12:16:03.378Z,1.65
2023-01-11T12:18:29.601Z,1.85
2023-01-11T12:20:55.852Z,1.80
2023-01-11T12:23:25.192Z,2.10
2023-01-11T12:25:53.668Z,2.30
2023-01-11T12:28:19.852Z,1.95
2023-01-11T12:30:46.100Z,1.90
2023-01-11T12:33:12.369Z,1.92
2023-01-11T12:35:38.596Z,1.77
2023-01-11T12:38:04.821Z,1.50
2023-01-11T12:40:31.041Z,2.20
2023-01-11T12:42:57.260Z,1.70
2023-01-11T12:45:23.496Z,1.60
2023-01-11T12:47:49.868Z,1.50
2023-01-11T12:50:18.536Z,1.33
2023-01-11T12:52:44.790Z,1.45
2023-01-11T12:56:03.094Z,1.42
2023-01-11T12:58:09.512Z,1.50
2023-01-11T13:00:38.144Z,1.25
2023-01-11T13:03:06.226Z,1.40
2023-01-11T13:05:39.788Z,1.35
2023-01-11T13:08:13.148Z,1.20
2023-01-11T13:10:42.875Z,1.38
2023-01-11T13:13:10.303Z,1.20
2023-01-11T13:15:36.556Z,0.80
2023-01-11T13:18:02.768Z,1.00
2023-01-11T13:20:44.416Z,0.85
2023-01-11T13:23:18.430Z,1.20
2023-01-11T13:25:44.661Z,0.90
2023-01-11T13:28:13.592Z,0.85
2023-01-11T13:30:42.841Z,1.00
2023-01-11T13:33:09.009Z,0.70
2023-01-11T13:35:35.161Z,1.17
2023-01-11T13:38:01.364Z,0.95
2023-01-11T13:40:27.552Z,1.30
2023-01-11T13:42:53.725Z,1.00
2023-01-11T13:45:19.914Z,0.88
2023-01-11T13:47:46.117Z,1.13
2023-01-11T13:50:12.358Z,0.95
2023-01-11T13:52:38.576Z,0.85
2023-01-11T13:55:07.163Z,0.90
2023-01-11T13:57:35.098Z,1.23
2023-01-11T14:00:01.285Z,1.08
2023-01-11T14:02:27.478Z,1.10
2023-01-11T14:04:53.685Z,0.80
2023-01-11T14:07:19.910Z,1.30
2023-01-11T14:09:46.154Z,1.00
2023-01-11T14:12:12.304Z,1.40
2023-01-11T14:14:38.663Z,1.17
2023-01-11T14:17:04.886Z,1.10
2023-01-11T14:19:31.073Z,1.17
2023-01-11T14:21:57.388Z,1.25
2023-01-11T14:24:23.734Z,1.50
2023-01-11T14:26:50.186Z,1.48
2023-01-11T14:29:16.675Z,1.20
2023-01-11T14:31:42.918Z,1.50
2023-01-11T14:34:09.107Z,1.48
2023-01-11T14:36:35.307Z,1.30
2023-01-11T14:39:01.650Z,1.67
2023-01-11T14:41:27.816Z,1.63
2023-01-11T14:43:53.992Z,1.83
2023-01-11T14:46:20.279Z,1.40
2023-01-11T14:48:46.500Z,1.20
2023-01-11T14:51:23.954Z,1.30
2023-01-11T14:53:54.439Z,1.60
2023-01-11T14:56:20.705Z,1.35
2023-01-11T14:58:46.924Z,1.30
2023-01-11T15:01:13.110Z,1.67
2023-01-11T15:03:39.321Z,1.60
2023-01-11T15:06:05.658Z,1.40
2023-01-11T15:08:31.879Z,1.40
2023-01-11T15:10:58.066Z,1.30
2023-01-11T15:13:24.266Z,1.80
2023-01-11T15:15:50.462Z,1.30
2023-01-11T15:18:16.659Z,1.33
2023-01-11T15:20:42.865Z,1.45
2023-01-11T15:23:13.374Z,1.27
2023-01-11T15:25:39.732Z,1.67
2023-01-11T15:28:05.967Z,1.70
2023-01-11T15:30:32.153Z,1.85
2023-01-11T15:32:58.342Z,1.83
2023-01-11T15:35:24.697Z,1.50
2023-01-11T15:37:51.009Z,1.60
2023-01-11T15:40:17.276Z,1.50
2023-01-11T15:42:43.475Z,1.88
2023-01-11T15:45:09.689Z,1.70
2023-01-11T15:47:35.929Z,2.35
2023-01-11T15:50:02.100Z,2.10
2023-01-11T15:52:28.325Z,2.38
2023-01-11T15:54:54.712Z,2.10
2023-01-11T15:57:20.935Z,1.80
2023-01-11T15:59:47.109Z,1.80
2023-01-11T16:02:13.303Z,2.20
2023-01-11T16:04:39.534Z,1.83
2023-01-11T16:07:05.791Z,1.77
2023-01-11T16:09:33.157Z,1.73
2023-01-11T16:11:59.660Z,1.85
2023-01-11T16:14:25.808Z,2.00
2023-01-11T16:16:51.993Z,1.58
2023-01-11T16:19:18.200Z,2.00
2023-01-11T16:21:44.388Z,1.77
2023-01-11T16:24:10.601Z,1.77
2023-01-11T16:26:36.887Z,1.48
2023-01-11T16:29:03.107Z,1.45
2023-01-11T16:31:29.305Z,1.75
2023-01-11T16:33:55.509Z,1.50
2023-01-11T16:36:21.867Z,1.85
2023-01-11T16:38:48.074Z,1.50
2023-01-11T16:41:14.230Z,2.30
2023-01-11T16:43:40.427Z,1.90
2023-01-11T16:46:06.778Z,2.00
2023-01-11T16:48:33.012Z,1.58
2023-01-11T16:50:59.363Z,3.17
2023-01-11T16:53:25.618Z,2.17
2023-01-11T16:55:51.830Z,2.22
2023-01-11T16:58:18.013Z,2.20
2023-01-11T17:00:44.309Z,1.95
2023-01-11T17:03:10.493Z,1.55
2023-01-11T17:05:36.769Z,1.70
2023-01-11T17:08:02.957Z,1.67
2023-01-11T17:10:29.124Z,1.85
2023-01-11T17:12:55.337Z,2.35
2023-01-11T17:15:21.530Z,2.22
2023-01-11T17:17:47.710Z,1.85
2023-01-11T17:20:14.045Z,1.73
2023-01-11T17:22:40.341Z,1.95
2023-01-11T17:25:06.508Z,2.20
2023-01-11T17:27:32.704Z,1.90
2023-01-11T17:29:58.946Z,1.75
2023-01-11T17:32:25.148Z,1.80
2023-01-11T17:34:52.612Z,1.83
2023-01-11T17:37:18.877Z,1.70
2023-01-11T17:39:45.260Z,2.20
2023-01-11T17:42:11.430Z,1.98
2023-01-11T17:44:37.596Z,3.60
2023-01-11T17:47:03.805Z,2.58
2023-01-11T17:49:29.997Z,2.42
2023-01-11T17:51:56.195Z,2.28
2023-01-11T17:54:22.451Z,2.90
2023-01-11T17:56:54.997Z,2.03
2023-01-11T17:59:22.328Z,2.42
2023-01-11T18:01:48.531Z,3.03
2023-01-11T18:04:19.244Z,3.20
2023-01-11T18:06:45.534Z,2.42
2023-01-11T18:09:11.702Z,2.33
2023-01-11T18:11:38.138Z,2.80
2023-01-11T18:14:04.333Z,2.65
2023-01-11T18:16:30.612Z,2.53
2023-01-11T18:18:56.857Z,2.83
2023-01-11T18:21:23.028Z,2.42
2023-01-11T18:23:49.242Z,1.92
2023-01-11T18:26:15.652Z,2.35
2023-01-11T18:28:41.840Z,2.22
2023-01-11T18:31:08.071Z,2.20
2023-01-11T18:33:34.361Z,2.90
2023-01-11T18:36:00.688Z,2.17
2023-01-11T18:38:26.937Z,2.15
2023-01-11T18:40:53.150Z,3.20
2023-01-11T18:43:19.361Z,2.50
2023-01-11T18:45:45.699Z,1.77
2023-01-11T18:48:12.126Z,2.40
2023-01-11T18:50:39.566Z,2.30
2023-01-11T18:53:05.900Z,2.63
2023-01-11T18:55:32.136Z,2.45
2023-01-11T18:58:01.498Z,3.22
2023-01-11T19:00:27.680Z,3.10
2023-01-11T19:02:54.068Z,1.75
2023-01-11T19:05:20.441Z,3.03
2023-01-11T19:07:46.653Z,2.47
2023-01-11T19:10:12.833Z,3.85
2023-01-11T19:12:39.045Z,5.05
2023-01-11T19:15:05.265Z,4.60
2023-01-11T19:17:31.416Z,2.78
2023-01-11T19:19:57.667Z,5.97
2023-01-11T19:22:26.472Z,6.85
2023-01-11T19:24:53.277Z,7.40
2023-01-11T19:27:19.489Z,3.92
2023-01-11T19:29:45.827Z,4.13
2023-01-11T19:32:12.088Z,3.95
2023-01-11T19:34:38.514Z,2.67
2023-01-11T19:37:04.867Z,2.65
2023-01-11T19:39:31.153Z,2.60
2023-01-11T19:41:57.445Z,3.55
2023-01-11T19:44:23.866Z,4.35
2023-01-11T19:46:56.758Z,4.53
2023-01-11T19:49:26.627Z,3.35
2023-01-11T19:51:54.790Z,2.20
2023-01-11T19:54:20.967Z,2.50
2023-01-11T19:56:47.427Z,2.80
2023-01-11T19:59:22.608Z,3.33
2023-01-11T20:01:48.861Z,3.78
2023-01-11T20:04:24.353Z,4.07
2023-01-11T20:06:50.550Z,2.88
2023-01-11T20:09:16.843Z,2.58
2023-01-11T20:11:43.450Z,2.50
2023-01-11T20:14:09.691Z,3.38
2023-01-11T20:16:35.911Z,2.70
2023-01-11T20:19:02.122Z,3.47
2023-01-11T20:21:28.352Z,2.40
2023-01-11T20:23:54.524Z,2.60
2023-01-11T20:26:20.790Z,2.50
2023-01-11T20:28:47.029Z,2.55
2023-01-11T20:31:13.350Z,2.30
2023-01-11T20:33:39.624Z,1.80
2023-01-11T20:36:05.917Z,3.28
2023-01-11T20:38:32.070Z,3.25
2023-01-11T20:40:58.269Z,2.65
2023-01-11T20:43:24.488Z,4.13
2023-01-11T20:45:50.920Z,2.15
2023-01-11T20:48:17.081Z,2.10
2023-01-11T20:50:43.285Z,2.45
2023-01-11T20:53:09.540Z,4.97
2023-01-11T20:55:35.838Z,2.60
2023-01-11T20:58:02.043Z,2.45
2023-01-11T21:00:28.215Z,2.35
2023-01-11T21:02:54.686Z,3.05
2023-01-11T21:05:20.898Z,2.90
2023-01-11T21:07:47.125Z,2.63
2023-01-11T21:10:13.376Z,2.47
2023-01-11T21:12:39.593Z,2.22
2023-01-11T21:15:05.878Z,2.40
2023-01-11T21:17:32.098Z,2.30
2023-01-11T21:19:58.269Z,1.88
2023-01-11T21:22:24.531Z,2.20
2023-01-11T21:24:50.785Z,1.80
2023-01-11T21:27:17.300Z,2.53
2023-01-11T21:29:43.552Z,2.15
2023-01-11T21:32:09.812Z,3.17
2023-01-11T21:34:36.062Z,3.17
2023-01-11T21:37:02.299Z,1.92
2023-01-11T21:39:28.478Z,2.05
2023-01-11T21:41:54.871Z,2.03
2023-01-11T21:44:21.064Z,2.13
2023-01-11T21:46:47.341Z,2.70
2023-01-11T21:49:13.631Z,1.27
2023-01-11T21:51:39.950Z,2.42
2023-01-11T21:54:06.148Z,1.70
2023-01-11T21:56:32.313Z,2.05
2023-01-11T21:58:58.474Z,2.20
2023-01-11T22:01:24.714Z,2.10
2023-01-11T22:03:51.243Z,1.85
2023-01-11T22:06:17.550Z,2.38
2023-01-11T22:08:43.831Z,1.77
2023-01-11T22:11:10.035Z,1.65
2023-01-11T22:13:36.412Z,2.72
2023-01-11T22:16:02.714Z,2.20
2023-01-11T22:18:28.915Z,2.38
2023-01-11T22:20:55.106Z,2.38
2023-01-11T22:23:21.469Z,1.77
2023-01-11T22:25:47.897Z,2.28
2023-01-11T22:28:14.106Z,1.50
2023-01-11T22:30:40.284Z,2.15
2023-01-11T22:33:06.520Z,2.00
2023-01-11T22:35:32.720Z,2.28
2023-01-11T22:37:58.939Z,1.70
2023-01-11T22:40:25.081Z,1.73
2023-01-11T22:42:51.513Z,1.70
2023-01-11T22:45:17.705Z,2.25
2023-01-11T22:47:43.951Z,2.17
2023-01-11T22:50:10.129Z,3.00
2023-01-11T22:52:36.253Z,1.83
2023-01-11T22:55:02.483Z,2.88
2023-01-11T22:57:28.656Z,1.48
2023-01-11T22:59:55.055Z,2.40
2023-01-11T23:02:21.328Z,2.20
2023-01-11T23:04:47.521Z,1.90
2023-01-11T23:07:13.841Z,2.10
2023-01-11T23:09:40.049Z,2.35
2023-01-11T23:12:06.381Z,2.05
2023-01-11T23:14:32.586Z,1.77
2023-01-11T23:16:58.866Z,1.73
2023-01-11T23:19:25.239Z,1.55
2023-01-11T23:21:51.437Z,1.80
2023-01-11T23:24:17.628Z,2.38
2023-01-11T23:26:43.934Z,1.45
2023-01-11T23:29:10.179Z,1.88
2023-01-11T23:31:36.459Z,1.65
2023-01-11T23:34:02.742Z,1.98
2023-01-11T23:36:28.922Z,2.10
2023-01-11T23:38:55.088Z,1.95
2023-01-11T23:41:21.302Z,1.45
2023-01-11T23:43:47.505Z,2.33
2023-01-11T23:46:13.832Z,2.53
2023-01-11T23:48:40.091Z,2.28
2023-01-11T23:51:06.267Z,2.15
2023-01-11T23:53:32.499Z,2.28
2023-01-11T23:55:58.734Z,2.22
2023-01-11T23:58:24.930Z,1.58
